Time;durP1;ratioP1;P1;durP2;ratioP2;P2;SDS_P1;SDS_P2;PMS_P1;PMS_P2;Temp;Humidity;BMP_temperature;BMP_pressure;BME280_temperature;BME280_humidity;BME280_pressure;Samples;Min_cycle;Max_cycle;Signal;HPM_P1;HPM_P2
2023/11/30 07:32:32;;;;;;;9.38;6.50;;;;;;;;;;10541324;28;20032;-87
2023/11/30 07:38:00;;;;;;;5.97;4.93;;;;;;;;;;10453361;28;20101;-87
2023/11/30 07:44:02;;;;;;;6.38;4.95;;;;;;;;;;10415488;28;20030;-86
2023/11/30 07:55:44;;;;;;;6.38;5.10;;;;;;;;;;10323044;28;20058;-86
2023/11/30 08:06:50;;;;;;;9.05;6.45;;;;;;;;;;10388094;28;20038;-81
2023/11/30 08:11:52;;;;;;;12.88;9.85;;;;;;;;;;10505184;28;20035;-80
2023/11/30 08:16:53;;;;;;;15.80;11.43;;;;;;;;;;10509614;28;20409;-80
2023/11/30 08:21:54;;;;;;;14.55;11.15;;;;;;;;;;10492015;28;20452;-83
2023/11/30 08:26:55;;;;;;;;;;;;;;;;;;10500705;28;20480;-80
2023/11/30 08:31:58;;;;;;;9.00;8.05;;;;;;;;;;10495583;28;19912;-80
2023/11/30 08:37:04;;;;;;;9.02;7.75;;;;;;;;;;10494303;28;20036;-81
2023/11/30 08:42:06;;;;;;;9.07;7.95;;;;;;;;;;10494368;28;20036;-80
2023/11/30 08:47:07;;;;;;;;;;;;;;;;;;10494096;28;20480;-81
2023/11/30 08:52:08;;;;;;;16.38;12.32;;;;;;;;;;10493269;28;19908;-81
2023/11/30 08:57:12;;;;;;;14.18;10.98;;;;;;;;;;10490069;28;20033;-82
2023/11/30 09:02:13;;;;;;;10.50;8.07;;;;;;;;;;10491342;28;20060;-81
2023/11/30 09:07:14;;;;;;;8.57;7.05;;;;;;;;;;10488921;28;20025;-79
2023/11/30 09:12:15;;;;;;;18.55;14.25;;;;;;;;;;10487710;28;20042;-79
2023/11/30 09:17:16;;;;;;;10.27;8.00;;;;;;;;;;10489137;28;20123;-80
2023/11/30 09:22:22;;;;;;;;;;;;;;;;;;10506627;28;20107;-80
2023/11/30 09:27:23;;;;;;;9.82;6.75;;;;;;;;;;10489082;28;19904;-79
2023/11/30 09:32:24;;;;;;;10.95;7.85;;;;;;;;;;10488215;28;20029;-79
2023/11/30 09:37:25;;;;;;;9.38;7.20;;;;;;;;;;10486800;28;20028;-79
2023/11/30 09:42:27;;;;;;;12.95;10.38;;;;;;;;;;10488072;28;20079;-79
2023/11/30 09:47:28;;;;;;;12.95;10.32;;;;;;;;;;10488311;28;20032;-79
2023/11/30 09:52:31;;;;;;;12.48;9.70;;;;;;;;;;10488168;28;20615;-80
2023/11/30 09:57:32;;;;;;;14.27;9.93;;;;;;;;;;10487970;28;20109;-81
2023/11/30 10:02:34;;;;;;;9.27;6.88;;;;;;;;;;10490022;28;20040;-80
2023/11/30 10:07:35;;;;;;;9.70;6.70;;;;;;;;;;10491543;28;20033;-80
2023/11/30 10:12:37;;;;;;;10.43;8.15;;;;;;;;;;10493820;28;20051;-80
2023/11/30 10:17:38;;;;;;;;;;;;;;;;;;10491528;28;20032;-82
2023/11/30 10:22:39;;;;;;;9.70;7.85;;;;;;;;;;10493240;28;19904;-82
2023/11/30 10:27:42;;;;;;;9.50;6.65;;;;;;;;;;10492791;28;20064;-79
2023/11/30 10:32:44;;;;;;;9.52;6.88;;;;;;;;;;10496868;28;20530;-80
2023/11/30 10:37:46;;;;;;;10.73;8.02;;;;;;;;;;10495054;28;20119;-81
2023/11/30 10:42:49;;;;;;;13.68;10.82;;;;;;;;;;10514430;28;20056;-80
2023/11/30 10:47:50;;;;;;;9.10;7.07;;;;;;;;;;10497244;28;20135;-80
2023/11/30 10:52:51;;;;;;;;;;;;;;;;;;10495847;28;20025;-81
2023/11/30 10:57:55;;;;;;;8.82;6.75;;;;;;;;;;10497204;28;19908;-81
2023/11/30 11:03:00;;;;;;;10.68;8.25;;;;;;;;;;10495612;28;20064;-84
2023/11/30 11:08:02;;;;;;;10.00;6.88;;;;;;;;;;10513414;28;20344;-81
2023/11/30 11:13:04;;;;;;;;;;;;;;;;;;10497623;28;20579;-83
2023/11/30 11:18:07;;;;;;;17.05;13.48;;;;;;;;;;10501012;28;20314;-81
2023/11/30 11:23:23;;;;;;;10.52;6.60;;;;;;;;;;10501870;28;20603;-84
2023/11/30 11:28:25;;;;;;;6.72;5.30;;;;;;;;;;10516292;28;20029;-83
2023/11/30 11:33:28;;;;;;;10.80;7.68;;;;;;;;;;10505949;28;20025;-84
2023/11/30 11:38:31;;;;;;;11.38;8.68;;;;;;;;;;10506431;28;20024;-83
2023/11/30 11:43:32;;;;;;;9.57;8.05;;;;;;;;;;10520610;28;20005;-82
2023/11/30 11:48:33;;;;;;;9.60;7.40;;;;;;;;;;10509401;28;20028;-81
2023/11/30 11:53:40;;;;;;;9.95;7.65;;;;;;;;;;10501313;28;20507;-83
2023/11/30 11:58:44;;;;;;;11.57;9.90;;;;;;;;;;10516493;28;20020;-80
2023/11/30 12:03:46;;;;;;;9.93;8.20;;;;;;;;;;10535878;28;20040;-82
2023/11/30 12:08:47;;;;;;;8.80;7.32;;;;;;;;;;10503731;28;20408;-83
2023/11/30 12:13:52;;;;;;;9.50;6.70;;;;;;;;;;10501807;28;20123;-85
2023/11/30 12:18:54;;;;;;;12.27;9.07;;;;;;;;;;10500395;28;20028;-84
2023/11/30 12:23:55;;;;;;;8.02;5.95;;;;;;;;;;10501216;28;20044;-84
2023/11/30 12:28:58;;;;;;;12.05;9.18;;;;;;;;;;10519407;28;20055;-83
2023/11/30 12:34:00;;;;;;;9.32;7.38;;;;;;;;;;10501027;28;20028;-84
2023/11/30 12:39:02;;;;;;;9.40;6.60;;;;;;;;;;10498896;28;20123;-82
2023/11/30 12:44:05;;;;;;;8.13;5.97;;;;;;;;;;10512051;28;20047;-81
2023/11/30 12:49:06;;;;;;;7.45;5.95;;;;;;;;;;10491994;28;20032;-80
2023/11/30 12:54:07;;;;;;;7.93;6.35;;;;;;;;;;10492898;28;20036;-82
2023/11/30 12:59:08;;;;;;;7.40;5.40;;;;;;;;;;10495995;28;20044;-82
2023/11/30 13:04:09;;;;;;;7.32;5.40;;;;;;;;;;10496935;28;20033;-83
2023/11/30 13:09:13;;;;;;;8.32;6.40;;;;;;;;;;10498534;28;20096;-82
2023/11/30 13:14:15;;;;;;;8.68;5.90;;;;;;;;;;10497521;28;20028;-82
2023/11/30 13:19:16;;;;;;;9.13;6.00;;;;;;;;;;10496379;28;20365;-81
2023/11/30 13:24:17;;;;;;;9.32;5.90;;;;;;;;;;10495044;28;20028;-82
2023/11/30 13:29:18;;;;;;;6.90;5.10;;;;;;;;;;10494197;28;20063;-80
2023/11/30 13:34:19;;;;;;;6.82;5.28;;;;;;;;;;10494085;28;20095;-80
2023/11/30 13:39:20;;;;;;;9.23;7.10;;;;;;;;;;10495002;28;20507;-82
2023/11/30 13:44:21;;;;;;;6.13;5.00;;;;;;;;;;10494876;28;20105;-81
2023/11/30 13:49:22;;;;;;;9.10;6.63;;;;;;;;;;10504445;28;20021;-82
2023/11/30 13:54:23;;;;;;;10.63;7.05;;;;;;;;;;10520458;28;20016;-84
2023/11/30 13:59:24;;;;;;;10.23;6.85;;;;;;;;;;10509186;28;20044;-82
2023/11/30 14:04:25;;;;;;;10.70;8.27;;;;;;;;;;10513866;28;20025;-83
2023/11/30 14:09:27;;;;;;;9.52;6.13;;;;;;;;;;10506915;28;20033;-83
2023/11/30 14:14:28;;;;;;;10.02;7.20;;;;;;;;;;10527280;28;20036;-82
2023/11/30 14:19:29;;;;;;;10.85;7.90;;;;;;;;;;10515545;28;20380;-84
2023/11/30 14:24:52;;;;;;;10.23;7.97;;;;;;;;;;10519420;28;20044;-84
2023/11/30 14:30:00;;;;;;;10.77;7.70;;;;;;;;;;10517917;28;20147;-81
2023/11/30 14:35:02;;;;;;;9.50;6.35;;;;;;;;;;10496181;28;20024;-84
2023/11/30 14:40:06;;;;;;;9.40;6.40;;;;;;;;;;10499161;28;20484;-84
2023/11/30 14:45:15;;;;;;;7.82;5.85;;;;;;;;;;10496244;28;20041;-83
2023/11/30 14:50:20;;;;;;;10.50;7.00;;;;;;;;;;10496409;28;20029;-83
2023/11/30 14:55:21;;;;;;;9.25;7.15;;;;;;;;;;10481117;28;20028;-84
2023/11/30 15:00:23;;;;;;;8.80;6.68;;;;;;;;;;10496071;28;20084;-83
2023/11/30 15:05:24;;;;;;;10.00;7.35;;;;;;;;;;10499482;28;20020;-84
2023/11/30 15:10:25;;;;;;;8.40;6.30;;;;;;;;;;10502919;28;20063;-83
2023/11/30 15:15:26;;;;;;;9.63;7.63;;;;;;;;;;10504900;28;20029;-84
2023/11/30 15:20:29;;;;;;;12.82;9.05;;;;;;;;;;10508276;28;20060;-82
2023/11/30 15:25:30;;;;;;;11.73;7.35;;;;;;;;;;10521400;28;20025;-83
2023/11/30 15:30:31;;;;;;;10.52;7.82;;;;;;;;;;10506782;28;20025;-84
2023/11/30 15:35:32;;;;;;;;;;;;;;;;;;10502648;28;20025;-84
2023/11/30 15:40:33;;;;;;;10.23;6.80;;;;;;;;;;10500153;28;20327;-84
2023/11/30 15:45:34;;;;;;;12.57;8.75;;;;;;;;;;10492504;28;20139;-83
2023/11/30 15:50:35;;;;;;;9.15;7.00;;;;;;;;;;10501771;28;20064;-82
2023/11/30 15:55:37;;;;;;;9.95;7.32;;;;;;;;;;10500527;28;20059;-84
2023/11/30 16:00:38;;;;;;;12.52;8.60;;;;;;;;;;10519561;28;20059;-82
2023/11/30 16:05:39;;;;;;;10.75;7.78;;;;;;;;;;10516125;28;20036;-82
2023/11/30 16:10:40;;;;;;;12.57;9.38;;;;;;;;;;10497326;28;20039;-82
2023/11/30 16:15:41;;;;;;;;;;;;;;;;;;10500474;28;20501;-82
2023/11/30 16:20:42;;;;;;;11.07;7.80;;;;;;;;;;10504127;28;19904;-82
2023/11/30 16:25:43;;;;;;;13.48;8.50;;;;;;;;;;10510338;28;20028;-82
2023/11/30 16:30:44;;;;;;;9.30;7.07;;;;;;;;;;10526170;28;20075;-82
2023/11/30 16:35:45;;;;;;;12.52;8.25;;;;;;;;;;10530782;28;20048;-82
2023/11/30 16:40:46;;;;;;;;;;;;;;;;;;10533024;28;20047;-83
2023/11/30 16:45:47;;;;;;;11.45;7.70;;;;;;;;;;10532249;28;19908;-81
2023/11/30 16:50:48;;;;;;;13.35;8.98;;;;;;;;;;10530669;28;20029;-82
2023/11/30 16:55:50;;;;;;;11.55;8.23;;;;;;;;;;10548363;28;20040;-84
2023/11/30 17:00:51;;;;;;;10.85;8.10;;;;;;;;;;10520446;28;20051;-83
2023/11/30 17:05:52;;;;;;;11.05;8.27;;;;;;;;;;10499372;28;20040;-84
2023/11/30 17:10:54;;;;;;;15.38;10.98;;;;;;;;;;10484505;28;20511;-83
2023/11/30 17:15:57;;;;;;;12.02;8.05;;;;;;;;;;10544163;28;20104;-84
2023/11/30 17:20:58;;;;;;;13.68;9.98;;;;;;;;;;10505890;28;20358;-82
2023/11/30 17:26:00;;;;;;;14.68;9.65;;;;;;;;;;10511109;28;20052;-83
2023/11/30 17:31:01;;;;;;;17.58;12.93;;;;;;;;;;10493973;28;20452;-81
2023/11/30 17:36:27;;;;;;;15.07;10.63;;;;;;;;;;10492744;28;20119;-85
2023/11/30 17:47:34;;;;;;;10.90;7.85;;;;;;;;;;10510736;28;20021;-84
2023/11/30 17:53:04;;;;;;;12.13;9.18;;;;;;;;;;10509287;28;20029;-83
2023/11/30 19:02:07;;;;;;;17.55;12.43;;;;;;;;;;10547271;28;20040;-84
2023/11/30 19:07:17;;;;;;;12.27;9.13;;;;;;;;;;10520533;28;20032;-83
2023/11/30 19:12:45;;;;;;;19.50;14.48;;;;;;;;;;10592724;28;20028;-83
2023/11/30 19:18:17;;;;;;;10.95;7.68;;;;;;;;;;10569667;28;20092;-83
2023/11/30 19:23:47;;;;;;;12.45;9.32;;;;;;;;;;10584457;28;20517;-83
2023/11/30 19:29:13;;;;;;;12.35;9.10;;;;;;;;;;10587122;28;20408;-84
2023/11/30 19:34:48;;;;;;;10.73;8.32;;;;;;;;;;10582325;28;20432;-83
2023/11/30 19:39:49;;;;;;;13.85;9.32;;;;;;;;;;10581767;28;20103;-83
2023/11/30 19:44:51;;;;;;;12.15;9.05;;;;;;;;;;10566596;28;20111;-83
2023/11/30 19:49:52;;;;;;;16.15;11.65;;;;;;;;;;10569638;28;20078;-83
2023/11/30 19:55:05;;;;;;;13.25;9.68;;;;;;;;;;10557862;28;20039;-84
2023/11/30 20:00:27;;;;;;;9.88;7.47;;;;;;;;;;10576947;28;20036;-84
2023/11/30 20:05:37;;;;;;;15.90;11.38;;;;;;;;;;10574630;28;20470;-83
